createdAt,value
2022-09-11T00:02:17.672Z,19.55
2022-09-11T00:04:47.278Z,19.90
2022-09-11T00:07:19.405Z,17.23
2022-09-11T00:09:49.060Z,17.13
2022-09-11T00:12:18.619Z,17.00
2022-09-11T00:14:48.153Z,16.70
2022-09-11T00:17:18.573Z,16.38
2022-09-11T00:19:48.216Z,15.43
2022-09-11T00:22:20.361Z,16.75
2022-09-11T00:24:50.152Z,16.15
2022-09-11T00:27:19.703Z,14.65
2022-09-11T00:29:49.779Z,15.00
2022-09-11T00:32:19.334Z,15.30
2022-09-11T00:34:49.111Z,15.18
2022-09-11T00:37:21.525Z,14.73
2022-09-11T00:39:54.574Z,15.30
2022-09-11T00:42:25.169Z,14.85
2022-09-11T00:45:04.041Z,14.60
2022-09-11T00:47:33.978Z,14.07
2022-09-11T00:50:12.184Z,14.07
2022-09-11T00:52:53.194Z,14.07
2022-09-11T00:55:26.811Z,14.68
2022-09-11T00:58:01.811Z,15.20
2022-09-11T01:00:31.616Z,15.20
2022-09-11T01:03:01.355Z,16.92
2022-09-11T01:05:34.574Z,19.02
2022-09-11T01:08:07.135Z,17.47
2022-09-11T01:10:41.457Z,17.15
2022-09-11T01:13:13.768Z,18.65
2022-09-11T01:15:47.315Z,17.42
2022-09-11T01:18:21.947Z,16.98
2022-09-11T01:21:10.153Z,17.55
2022-09-11T01:24:03.978Z,18.20
2022-09-11T01:26:41.799Z,16.90
2022-09-11T01:29:18.712Z,16.80
2022-09-11T01:31:58.159Z,16.48
2022-09-11T01:34:34.388Z,19.75
2022-09-11T01:37:06.465Z,16.90
2022-09-11T01:39:44.257Z,17.65
2022-09-11T01:42:17.711Z,17.55
2022-09-11T01:44:53.228Z,18.70
2022-09-11T01:47:23.823Z,19.02
2022-09-11T01:49:58.520Z,16.90
2022-09-11T01:52:33.937Z,17.95
2022-09-11T01:55:07.486Z,17.48
2022-09-11T01:57:40.282Z,16.67
2022-09-11T02:00:15.096Z,16.42
2022-09-11T02:02:59.093Z,19.23
2022-09-11T02:05:32.155Z,17.92
2022-09-11T02:08:05.147Z,18.65
2022-09-11T02:10:38.813Z,18.67
2022-09-11T02:13:13.676Z,19.70
2022-09-11T02:15:47.948Z,20.95
2022-09-11T02:18:21.541Z,21.35
2022-09-11T02:20:51.406Z,23.33
2022-09-11T02:23:21.389Z,20.70
2022-09-11T02:25:51.019Z,24.60
2022-09-11T02:28:21.676Z,32.97
2022-09-11T02:30:55.064Z,28.08
2022-09-11T02:33:32.496Z,30.35
2022-09-11T02:36:15.072Z,30.40
2022-09-11T02:38:50.232Z,30.00
2022-09-11T02:41:24.073Z,25.83
2022-09-11T02:44:01.758Z,21.67
2022-09-11T02:47:04.614Z,19.70
2022-09-11T02:49:42.946Z,19.40
2022-09-11T02:52:21.464Z,30.35
2022-09-11T02:54:56.019Z,19.63
2022-09-11T02:57:31.882Z,18.70
2022-09-11T03:00:04.631Z,17.83
2022-09-11T03:02:41.467Z,20.40
2022-09-11T03:05:13.522Z,20.17
2022-09-11T03:07:44.220Z,20.70
2022-09-11T03:10:14.064Z,22.40
2022-09-11T03:12:43.852Z,21.60
2022-09-11T03:15:17.367Z,22.53
2022-09-11T03:17:50.072Z,21.50
2022-09-11T03:20:20.884Z,27.60
2022-09-11T03:22:50.763Z,29.23
2022-09-11T03:25:20.548Z,25.45
2022-09-11T03:27:50.844Z,29.85
2022-09-11T03:30:21.110Z,36.97
2022-09-11T03:32:54.239Z,36.03
2022-09-11T03:35:24.694Z,32.10
2022-09-11T03:37:55.395Z,31.00
2022-09-11T03:40:25.287Z,37.45
2022-09-11T03:42:54.976Z,33.83
2022-09-11T03:45:25.286Z,38.23
2022-09-11T03:47:57.760Z,36.75
2022-09-11T03:50:27.957Z,40.75
2022-09-11T03:52:58.054Z,37.20
2022-09-11T03:55:29.299Z,42.63
2022-09-11T03:57:59.093Z,38.80
2022-09-11T04:00:28.963Z,43.73
2022-09-11T04:03:02.877Z,42.53
2022-09-11T04:05:38.093Z,44.80
2022-09-11T04:08:08.933Z,45.40
2022-09-11T04:10:39.739Z,47.85
2022-09-11T04:13:12.102Z,47.08
2022-09-11T04:15:42.681Z,57.45
2022-09-11T04:18:14.967Z,55.35
2022-09-11T04:20:44.556Z,55.42
2022-09-11T04:23:14.274Z,57.05
2022-09-11T04:25:46.444Z,61.78
2022-09-11T04:28:16.057Z,58.50
2022-09-11T04:30:45.676Z,55.58
2022-09-11T04:33:17.864Z,61.10
2022-09-11T04:35:48.152Z,60.50
2022-09-11T04:38:18.889Z,62.90
2022-09-11T04:40:49.381Z,64.75
2022-09-11T04:43:19.102Z,61.53
2022-09-11T04:45:48.752Z,59.33
2022-09-11T04:48:20.930Z,61.20
2022-09-11T04:50:50.945Z,62.25
2022-09-11T04:53:26.020Z,60.80
2022-09-11T04:55:55.764Z,64.93
2022-09-11T04:58:25.904Z,61.20
2022-09-11T05:00:55.579Z,62.15
2022-09-11T05:03:27.886Z,58.10
2022-09-11T05:06:00.720Z,59.30
2022-09-11T05:08:30.312Z,62.65
2022-09-11T05:11:00.035Z,62.88
2022-09-11T05:13:36.095Z,64.93
2022-09-11T05:16:06.772Z,63.30
2022-09-11T05:18:39.920Z,62.38
2022-09-11T05:21:12.892Z,65.07
2022-09-11T05:23:42.791Z,63.35
2022-09-11T05:26:18.180Z,64.60
2022-09-11T05:28:48.200Z,66.63
2022-09-11T05:31:20.340Z,74.07
2022-09-11T05:33:53.026Z,71.90
2022-09-11T05:36:22.604Z,72.03
2022-09-11T05:38:52.796Z,72.43
2022-09-11T05:41:23.127Z,73.93
2022-09-11T05:43:52.902Z,68.82
2022-09-11T05:46:23.206Z,76.93
2022-09-11T05:49:00.560Z,72.35
2022-09-11T05:51:35.651Z,69.28
2022-09-11T05:54:07.321Z,62.95
2022-09-11T05:56:38.031Z,60.72
2022-09-11T05:59:16.389Z,65.25
2022-09-11T06:01:50.417Z,70.20
2022-09-11T06:04:44.060Z,67.23
2022-09-11T06:07:14.778Z,66.30
2022-09-11T06:09:47.843Z,66.10
2022-09-11T06:12:18.671Z,65.25
2022-09-11T06:14:49.892Z,68.35
2022-09-11T06:17:19.734Z,62.45
2022-09-11T06:19:51.939Z,61.78
2022-09-11T06:22:21.697Z,65.05
2022-09-11T06:24:53.731Z,63.83
2022-09-11T06:27:23.665Z,62.72
2022-09-11T06:29:53.498Z,61.03
2022-09-11T06:32:23.535Z,60.35
2022-09-11T06:34:56.715Z,60.15
2022-09-11T06:37:28.194Z,61.33
2022-09-11T06:39:57.824Z,57.88
2022-09-11T06:42:29.948Z,60.53
2022-09-11T06:45:02.867Z,61.47
2022-09-11T06:47:33.801Z,56.20
2022-09-11T06:50:06.545Z,54.85
2022-09-11T06:52:45.732Z,52.88
2022-09-11T06:55:30.645Z,54.63
2022-09-11T06:58:07.735Z,54.72
2022-09-11T07:00:39.426Z,52.33
2022-09-11T07:03:09.792Z,53.10
2022-09-11T07:05:41.996Z,53.35
2022-09-11T07:08:11.616Z,50.00
2022-09-11T07:10:41.695Z,47.22
2022-09-11T07:13:11.337Z,53.15
2022-09-11T07:15:42.420Z,52.65
2022-09-11T07:18:12.408Z,50.17
2022-09-11T07:20:45.991Z,52.20
2022-09-11T07:23:15.811Z,51.70
2022-09-11T07:25:46.650Z,52.97
2022-09-11T07:28:16.335Z,54.70
2022-09-11T07:30:46.041Z,53.33
2022-09-11T07:33:15.943Z,54.90
2022-09-11T07:35:49.268Z,53.25
2022-09-11T07:38:19.346Z,53.55
2022-09-11T07:40:49.399Z,53.67
2022-09-11T07:43:21.055Z,52.05
2022-09-11T07:45:51.117Z,51.60
2022-09-11T07:48:21.255Z,49.55
2022-09-11T07:51:02.363Z,48.65
2022-09-11T07:53:35.222Z,48.85
2022-09-11T07:56:06.238Z,47.95
2022-09-11T07:58:38.149Z,49.72
2022-09-11T08:01:09.268Z,49.93
2022-09-11T08:03:39.643Z,46.88
2022-09-11T08:06:16.064Z,46.95
2022-09-11T08:08:55.465Z,46.25
2022-09-11T08:11:26.980Z,47.35
2022-09-11T08:13:57.885Z,48.47
2022-09-11T08:16:30.447Z,46.23
2022-09-11T08:19:02.532Z,47.00
2022-09-11T08:21:35.881Z,46.73
2022-09-11T08:24:07.311Z,44.93
2022-09-11T08:26:39.608Z,43.72
2022-09-11T08:29:09.363Z,46.22
2022-09-11T08:31:39.340Z,45.60
2022-09-11T08:34:12.655Z,45.63
2022-09-11T08:36:45.526Z,46.03
2022-09-11T08:39:15.579Z,44.35
2022-09-11T08:41:53.705Z,44.70
2022-09-11T08:44:28.308Z,45.70
2022-09-11T08:47:10.429Z,45.65
2022-09-11T08:49:43.395Z,45.95
2022-09-11T08:52:17.307Z,44.10
2022-09-11T08:54:50.579Z,44.05
2022-09-11T08:57:24.544Z,46.33
2022-09-11T09:00:18.229Z,44.00
2022-09-11T09:03:08.683Z,45.58
2022-09-11T09:05:45.444Z,44.80
2022-09-11T09:08:32.633Z,44.05
2022-09-11T09:11:11.198Z,46.42
2022-09-11T09:13:55.279Z,49.53
2022-09-11T09:16:35.061Z,47.70
2022-09-11T09:19:08.952Z,50.80
2022-09-11T09:21:42.651Z,48.45
2022-09-11T09:24:19.584Z,51.23
2022-09-11T09:26:56.182Z,51.65
2022-09-11T09:29:28.581Z,51.75
2022-09-11T09:32:02.616Z,51.20
2022-09-11T09:34:34.784Z,51.25
2022-09-11T09:37:08.492Z,54.42
2022-09-11T09:39:40.893Z,52.55
2022-09-11T09:42:41.978Z,52.67
2022-09-11T09:45:23.454Z,50.67
2022-09-11T09:47:53.453Z,52.72
2022-09-11T09:50:24.972Z,51.07
2022-09-11T09:52:56.815Z,50.55
2022-09-11T09:55:29.247Z,51.30
2022-09-11T09:57:58.731Z,51.97
2022-09-11T10:00:32.968Z,50.17
2022-09-11T10:03:02.519Z,55.00
2022-09-11T10:05:33.386Z,51.13
2022-09-11T10:08:05.657Z,53.10
2022-09-11T10:10:39.315Z,54.33
2022-09-11T10:13:19.859Z,53.37
2022-09-11T10:15:52.194Z,57.33
2022-09-11T10:18:26.214Z,51.70
2022-09-11T10:20:55.797Z,51.75
2022-09-11T10:23:27.513Z,54.15
2022-09-11T10:25:59.631Z,52.53
2022-09-11T10:28:31.797Z,51.08
2022-09-11T10:31:03.571Z,51.58
2022-09-11T10:33:36.125Z,50.05
2022-09-11T10:36:08.455Z,48.60
2022-09-11T10:38:42.133Z,48.58
2022-09-11T10:41:21.556Z,43.35
2022-09-11T10:43:55.975Z,45.00
2022-09-11T10:46:39.291Z,42.63
2022-09-11T10:49:19.687Z,42.80
2022-09-11T10:52:05.413Z,41.92
2022-09-11T10:54:47.119Z,40.63
2022-09-11T10:57:22.744Z,39.50
2022-09-11T11:00:02.149Z,41.90
2022-09-11T11:02:34.239Z,42.10
2022-09-11T11:05:06.928Z,39.57
2022-09-11T11:08:01.519Z,38.88
2022-09-11T11:10:44.541Z,38.75
2022-09-11T11:13:32.847Z,39.75
2022-09-11T11:16:10.732Z,40.42
2022-09-11T11:18:52.233Z,41.55
2022-09-11T11:21:29.262Z,41.45
2022-09-11T11:24:15.337Z,44.17
2022-09-11T11:27:01.202Z,46.13
2022-09-11T11:29:43.510Z,42.13
2022-09-11T11:32:22.295Z,39.78
2022-09-11T11:35:01.917Z,38.67
2022-09-11T11:37:35.900Z,39.85
2022-09-11T11:40:08.784Z,38.63
2022-09-11T11:42:41.557Z,38.58
2022-09-11T11:45:23.923Z,40.43
2022-09-11T11:47:55.083Z,39.17
2022-09-11T11:50:31.918Z,40.58
2022-09-11T11:53:06.177Z,41.22
2022-09-11T11:55:46.950Z,42.72
2022-09-11T11:58:22.627Z,42.15
2022-09-11T12:00:59.891Z,40.05
2022-09-11T12:03:32.781Z,37.95
2022-09-11T12:06:03.104Z,39.53
2022-09-11T12:08:32.659Z,38.45
2022-09-11T12:11:06.383Z,39.85
2022-09-11T12:13:38.597Z,38.67
2022-09-11T12:16:16.006Z,38.67
2022-09-11T12:19:04.790Z,37.03
2022-09-11T12:21:42.644Z,36.78
2022-09-11T12:24:15.638Z,38.63
2022-09-11T12:26:45.176Z,35.38
2022-09-11T12:29:50.475Z,35.00
2022-09-11T12:32:47.948Z,36.25
2022-09-11T12:35:22.728Z,34.63
2022-09-11T12:37:57.645Z,35.80
2022-09-11T12:40:35.712Z,35.72
2022-09-11T12:43:45.545Z,35.50
2022-09-11T12:46:37.848Z,36.70
2022-09-11T12:49:22.870Z,34.47
2022-09-11T12:51:57.500Z,33.75
2022-09-11T12:54:29.636Z,35.28
2022-09-11T12:57:03.494Z,33.10
2022-09-11T12:59:35.572Z,34.03
2022-09-11T13:02:05.885Z,34.45
2022-09-11T13:04:38.253Z,35.67
2022-09-11T13:07:09.984Z,33.95
2022-09-11T13:09:42.169Z,35.58
2022-09-11T13:12:50.572Z,33.45
2022-09-11T13:15:43.783Z,34.50
2022-09-11T13:18:32.980Z,33.60
2022-09-11T13:21:16.288Z,34.10
2022-09-11T13:23:45.955Z,35.40
2022-09-11T13:26:21.512Z,35.42
2022-09-11T13:28:52.506Z,35.45
2022-09-11T13:31:23.913Z,37.00
2022-09-11T13:33:55.119Z,36.28
2022-09-11T13:36:27.720Z,36.10
2022-09-11T13:39:00.151Z,35.07
2022-09-11T13:41:32.368Z,35.50
2022-09-11T13:44:03.219Z,35.87
2022-09-11T13:46:34.849Z,34.72
2022-09-11T13:49:27.909Z,35.40
2022-09-11T13:52:00.569Z,34.60
2022-09-11T13:54:32.655Z,34.60
2022-09-11T13:57:15.711Z,33.08
2022-09-11T13:59:54.199Z,33.00
2022-09-11T14:02:34.641Z,33.20
2022-09-11T14:05:10.705Z,32.63
2022-09-11T14:07:49.204Z,32.42
2022-09-11T14:10:23.639Z,34.77
2022-09-11T14:12:56.935Z,32.10
2022-09-11T14:15:38.184Z,32.50
2022-09-11T14:18:12.062Z,33.10
2022-09-11T14:20:44.566Z,34.05
2022-09-11T14:23:20.531Z,32.97
2022-09-11T14:26:05.844Z,33.47
2022-09-11T14:28:40.321Z,31.20
2022-09-11T14:31:11.098Z,29.23
2022-09-11T14:33:40.868Z,29.35
2022-09-11T14:36:20.135Z,28.05
2022-09-11T14:38:53.400Z,27.13
2022-09-11T14:41:23.272Z,27.60
2022-09-11T14:43:53.107Z,26.77
2022-09-11T14:46:22.669Z,27.73
2022-09-11T14:48:52.277Z,26.60
2022-09-11T14:51:22.181Z,28.42
2022-09-11T14:53:54.322Z,28.10
2022-09-11T14:56:26.485Z,28.83
2022-09-11T14:58:56.060Z,27.60
2022-09-11T15:01:25.674Z,27.50
2022-09-11T15:03:55.258Z,26.23
2022-09-11T15:06:25.325Z,27.08
2022-09-11T15:08:58.165Z,27.67
2022-09-11T15:11:27.905Z,26.95
2022-09-11T15:14:15.942Z,37.37
2022-09-11T15:16:48.724Z,24.65
2022-09-11T15:19:18.236Z,23.20
2022-09-11T15:21:47.758Z,24.92
2022-09-11T15:24:19.908Z,24.55
2022-09-11T15:26:49.446Z,23.77
2022-09-11T15:29:18.977Z,24.60
2022-09-11T15:31:48.510Z,24.50
2022-09-11T15:34:19.006Z,25.42
2022-09-11T15:36:49.149Z,23.00
2022-09-11T15:39:24.418Z,24.90
2022-09-11T15:41:54.037Z,23.33
2022-09-11T15:44:25.373Z,22.70
2022-09-11T15:46:56.070Z,22.77
2022-09-11T15:49:28.141Z,22.03
2022-09-11T15:51:58.360Z,23.40
2022-09-11T15:54:31.019Z,22.38
2022-09-11T15:57:00.598Z,23.15
2022-09-11T15:59:30.257Z,21.10
2022-09-11T16:02:00.203Z,20.27
2022-09-11T16:04:31.643Z,20.20
2022-09-11T16:07:01.209Z,21.60
2022-09-11T16:09:34.416Z,21.33
2022-09-11T16:12:05.041Z,21.20
2022-09-11T16:14:36.050Z,21.63
2022-09-11T16:17:05.808Z,21.45
2022-09-11T16:19:35.453Z,21.50
2022-09-11T16:22:06.980Z,21.73
2022-09-11T16:24:39.566Z,22.05
2022-09-11T16:27:10.329Z,21.10
2022-09-11T16:32:38.047Z,21.30
2022-09-11T16:35:08.945Z,21.73
2022-09-11T16:37:38.558Z,21.42
2022-09-11T16:40:12.100Z,19.20
2022-09-11T16:42:41.614Z,20.80
2022-09-11T16:45:12.004Z,21.10
2022-09-11T16:47:41.601Z,21.27
2022-09-11T16:50:12.421Z,19.92
2022-09-11T16:52:42.061Z,21.03
2022-09-11T16:55:15.315Z,19.30
2022-09-11T16:57:46.248Z,18.92
2022-09-11T17:00:16.819Z,20.10
2022-09-11T17:02:46.451Z,20.33
2022-09-11T17:05:18.094Z,26.27
2022-09-11T17:07:47.674Z,22.75
2022-09-11T17:10:19.943Z,19.60
2022-09-11T17:12:50.042Z,25.60
2022-09-11T17:15:20.382Z,21.48
2022-09-11T17:17:50.166Z,24.75
2022-09-11T17:20:20.036Z,21.10
2022-09-11T17:22:49.564Z,23.80
2022-09-11T17:25:21.720Z,21.30
2022-09-11T17:27:51.314Z,19.25
2022-09-11T17:30:21.789Z,19.02
2022-09-11T17:32:51.339Z,19.15
2022-09-11T17:35:21.208Z,19.23
2022-09-11T17:37:50.797Z,19.90
2022-09-11T17:40:22.984Z,18.67
2022-09-11T17:42:52.537Z,22.35
2022-09-11T17:45:23.100Z,22.00
2022-09-11T17:47:53.103Z,21.17
2022-09-11T17:50:22.680Z,20.50
2022-09-11T17:52:52.208Z,22.27
2022-09-11T17:55:24.308Z,21.60
2022-09-11T17:57:57.411Z,21.88
2022-09-11T18:00:26.936Z,21.77
2022-09-11T18:02:58.814Z,22.80
2022-09-11T18:05:28.760Z,21.93
2022-09-11T18:08:00.211Z,22.77
2022-09-11T18:10:32.642Z,22.63
2022-09-11T18:13:02.811Z,23.55
2022-09-11T18:15:32.328Z,23.52
2022-09-11T18:18:02.103Z,24.80
2022-09-11T18:20:31.659Z,24.80
2022-09-11T18:23:01.370Z,22.85
2022-09-11T18:25:33.559Z,24.70
2022-09-11T18:28:03.659Z,24.20
2022-09-11T18:30:33.782Z,26.33
2022-09-11T18:33:06.682Z,25.23
2022-09-11T18:35:39.117Z,23.55
2022-09-11T18:38:09.103Z,24.70
2022-09-11T18:40:41.272Z,24.85
2022-09-11T18:43:10.831Z,23.48
2022-09-11T18:45:41.582Z,25.15
2022-09-11T18:48:11.172Z,26.33
2022-09-11T18:50:40.740Z,24.42
2022-09-11T18:53:10.285Z,24.40
2022-09-11T18:55:42.432Z,24.65
2022-09-11T18:58:12.070Z,24.23
2022-09-11T19:00:41.695Z,27.50
2022-09-11T19:03:11.715Z,25.42
2022-09-11T19:05:42.351Z,25.40
2022-09-11T19:08:11.887Z,26.40
2022-09-11T19:10:44.106Z,24.92
2022-09-11T19:13:13.593Z,24.30
2022-09-11T19:15:43.263Z,25.10
2022-09-11T19:18:14.164Z,24.93
2022-09-11T19:20:43.698Z,23.85
2022-09-11T19:23:13.193Z,24.40
2022-09-11T19:25:45.331Z,22.83
2022-09-11T19:28:14.867Z,26.05
2022-09-11T19:30:45.007Z,25.90
2022-09-11T19:33:14.725Z,23.85
2022-09-11T19:35:44.299Z,24.27
2022-09-11T19:38:13.891Z,25.20
2022-09-11T19:40:46.214Z,24.90
2022-09-11T19:43:15.857Z,24.30
2022-09-11T19:45:45.840Z,24.90
2022-09-11T19:48:15.920Z,29.30
2022-09-11T19:50:46.399Z,27.55
2022-09-11T19:53:17.108Z,26.10
2022-09-11T19:55:49.226Z,27.40
2022-09-11T19:58:23.359Z,25.67
2022-09-11T20:00:53.804Z,25.42
2022-09-11T20:03:23.355Z,25.70
2022-09-11T20:05:52.881Z,25.65
2022-09-11T20:08:22.456Z,24.88
2022-09-11T20:10:54.668Z,24.27
2022-09-11T20:13:24.199Z,26.55
2022-09-11T20:15:53.751Z,26.97
2022-09-11T20:18:23.453Z,25.65
2022-09-11T20:20:53.286Z,25.10
2022-09-11T20:23:23.002Z,25.33
2022-09-11T20:25:55.081Z,26.35
2022-09-11T20:28:24.652Z,25.80
2022-09-11T20:30:55.067Z,26.38
2022-09-11T20:33:24.749Z,25.00
2022-09-11T20:35:54.359Z,27.35
2022-09-11T20:38:23.983Z,25.20
2022-09-11T20:40:56.284Z,26.15
2022-09-11T20:43:25.953Z,24.95
2022-09-11T20:45:57.228Z,25.38
2022-09-11T20:48:26.890Z,26.98
2022-09-11T20:50:56.435Z,25.40
2022-09-11T20:53:26.287Z,24.33
2022-09-11T20:56:03.064Z,26.80
2022-09-11T20:58:32.845Z,25.02
2022-09-11T21:01:02.442Z,25.60
2022-09-11T21:03:32.348Z,28.15
2022-09-11T21:06:08.422Z,28.63
2022-09-11T21:08:39.905Z,27.90
2022-09-11T21:11:12.459Z,28.00
2022-09-11T21:13:44.207Z,27.63
2022-09-11T21:16:15.917Z,28.10
2022-09-11T21:18:48.712Z,26.60
2022-09-11T21:21:18.958Z,27.00
2022-09-11T21:23:48.567Z,26.80
2022-09-11T21:26:20.738Z,27.75
2022-09-11T21:28:50.310Z,31.93
2022-09-11T21:31:19.928Z,30.95
2022-09-11T21:33:49.544Z,30.85
2022-09-11T21:36:19.112Z,29.50
2022-09-11T21:38:48.750Z,28.83
2022-09-11T21:41:21.110Z,27.42
2022-09-11T21:43:50.655Z,27.63
2022-09-11T21:46:20.206Z,26.90
2022-09-11T21:48:49.758Z,27.05
2022-09-11T21:51:20.585Z,26.40
2022-09-11T21:53:51.241Z,28.63
2022-09-11T21:56:26.390Z,27.10
2022-09-11T21:58:56.611Z,25.90
2022-09-11T22:01:27.571Z,27.13
2022-09-11T22:03:57.404Z,26.35
2022-09-11T22:06:27.079Z,26.05
2022-09-11T22:08:57.020Z,27.10
2022-09-11T22:11:29.156Z,27.10
2022-09-11T22:13:58.754Z,25.48
2022-09-11T22:16:28.347Z,26.15
2022-09-11T22:18:57.980Z,24.90
2022-09-11T22:21:27.919Z,25.92
2022-09-11T22:23:57.696Z,25.60
2022-09-11T22:26:30.199Z,26.45
2022-09-11T22:29:01.195Z,25.85
2022-09-11T22:31:30.884Z,25.80
2022-09-11T22:34:00.511Z,25.05
2022-09-11T22:36:32.331Z,26.85
2022-09-11T22:39:04.942Z,26.13
2022-09-11T22:41:37.136Z,26.08
2022-09-11T22:44:07.493Z,24.60
2022-09-11T22:46:37.176Z,25.38
2022-09-11T22:49:06.755Z,26.52
2022-09-11T22:51:36.595Z,25.02
2022-09-11T22:54:06.331Z,26.75
2022-09-11T22:56:38.593Z,25.00
2022-09-11T22:59:08.126Z,25.93
2022-09-11T23:01:37.875Z,26.55
2022-09-11T23:04:07.462Z,25.60
2022-09-11T23:06:49.448Z,25.95
2022-09-11T23:09:19.514Z,24.95
2022-09-11T23:11:51.655Z,25.75
2022-09-11T23:14:21.256Z,23.98
2022-09-11T23:16:50.827Z,26.35
2022-09-11T23:19:20.822Z,24.55
2022-09-11T23:21:50.474Z,24.80
2022-09-11T23:24:20.615Z,25.42
2022-09-11T23:26:52.746Z,25.48
2022-09-11T23:29:22.272Z,25.58
2022-09-11T23:31:51.899Z,26.20
2022-09-11T23:34:21.445Z,25.63
2022-09-11T23:36:51.115Z,24.87
2022-09-11T23:39:20.706Z,24.75
2022-09-11T23:41:52.788Z,25.90
2022-09-11T23:44:22.385Z,24.38
2022-09-11T23:46:51.940Z,26.83
2022-09-11T23:49:21.580Z,25.92
2022-09-11T23:51:51.215Z,26.70
2022-09-11T23:54:20.764Z,26.23
2022-09-11T23:56:52.863Z,25.83
2022-09-11T23:59:22.515Z,26.23
